createdAt,value
2017-04-24T00:00:09.986Z,4.89
2017-04-24T00:01:10.753Z,4.94
2017-04-24T00:02:11.516Z,4.87
2017-04-24T00:03:12.539Z,4.86
2017-04-24T00:04:13.300Z,4.86
2017-04-24T00:05:14.064Z,4.92
2017-04-24T00:06:14.829Z,4.92
2017-04-24T00:07:15.591Z,4.80
2017-04-24T00:08:16.606Z,4.86
2017-04-24T00:09:17.370Z,4.86
2017-04-24T00:10:18.136Z,4.87
2017-04-24T00:11:18.899Z,4.87
2017-04-24T00:12:19.660Z,4.86
2017-04-24T00:13:20.729Z,4.80
2017-04-24T00:14:21.494Z,4.90
2017-04-24T00:15:22.256Z,4.77
2017-04-24T00:16:23.019Z,4.78
2017-04-24T00:17:23.781Z,4.77
2017-04-24T00:18:24.798Z,4.87
2017-04-24T00:19:25.559Z,4.89
2017-04-24T00:20:26.324Z,4.84
2017-04-24T00:21:27.090Z,4.87
2017-04-24T00:22:27.856Z,4.89
2017-04-24T00:23:28.876Z,4.78
2017-04-24T00:24:29.631Z,4.75
2017-04-24T00:25:30.395Z,4.70
2017-04-24T00:26:31.159Z,4.66
2017-04-24T00:27:31.923Z,4.73
2017-04-24T00:28:32.939Z,4.58
2017-04-24T00:29:33.703Z,4.59
2017-04-24T00:30:34.468Z,4.63
2017-04-24T00:31:35.235Z,4.56
2017-04-24T00:32:36.000Z,4.55
2017-04-24T00:33:37.010Z,4.58
2017-04-24T00:34:37.776Z,4.59
2017-04-24T00:35:38.538Z,4.55
2017-04-24T00:36:40.502Z,4.56
2017-04-24T00:37:41.265Z,4.52
2017-04-24T00:38:42.278Z,4.48
2017-04-24T00:39:43.039Z,4.53
2017-04-24T00:40:43.806Z,4.50
2017-04-24T00:41:44.572Z,4.55
2017-04-24T00:42:45.335Z,4.56
2017-04-24T00:43:46.349Z,4.56
2017-04-24T00:44:47.111Z,4.42
2017-04-24T00:45:47.873Z,4.45
2017-04-24T00:46:48.639Z,4.55
2017-04-24T00:47:49.406Z,4.52
2017-04-24T00:48:50.423Z,4.48
2017-04-24T00:49:51.188Z,4.40
2017-04-24T00:50:51.950Z,4.45
2017-04-24T00:51:52.713Z,4.50
2017-04-24T00:52:53.476Z,4.38
2017-04-24T00:53:54.490Z,4.44
2017-04-24T00:54:55.255Z,4.42
2017-04-24T00:55:56.017Z,4.45
2017-04-24T00:56:56.786Z,4.40
2017-04-24T00:57:57.545Z,4.30
2017-04-24T00:58:58.558Z,4.32
2017-04-24T00:59:59.323Z,4.30
2017-04-24T01:01:00.085Z,4.30
2017-04-24T01:02:00.849Z,4.30
2017-04-24T01:03:01.611Z,4.32
2017-04-24T01:04:02.625Z,4.28
2017-04-24T01:05:03.388Z,4.20
2017-04-24T01:06:04.153Z,4.23
2017-04-24T01:07:04.918Z,4.24
2017-04-24T01:08:05.683Z,4.16
2017-04-24T01:09:06.705Z,4.23
2017-04-24T01:10:07.464Z,4.12
2017-04-24T01:11:08.230Z,4.20
2017-04-24T01:12:08.993Z,4.14
2017-04-24T01:13:09.756Z,4.14
2017-04-24T01:14:10.771Z,4.10
2017-04-24T01:15:11.536Z,4.06
2017-04-24T01:16:12.298Z,4.17
2017-04-24T01:17:13.069Z,4.04
2017-04-24T01:18:13.828Z,4.10
2017-04-24T01:19:14.840Z,4.04
2017-04-24T01:20:15.605Z,4.06
2017-04-24T01:21:16.369Z,4.14
2017-04-24T01:22:17.133Z,4.04
2017-04-24T01:23:17.898Z,4.05
2017-04-24T01:24:18.961Z,4.08
2017-04-24T01:25:19.739Z,4.10
2017-04-24T01:26:20.489Z,4.13
2017-04-24T01:27:21.251Z,4.04
2017-04-24T01:28:22.017Z,4.02
2017-04-24T01:29:23.219Z,4.04
2017-04-24T01:30:23.980Z,4.01
2017-04-24T01:31:24.742Z,4.01
2017-04-24T01:32:25.506Z,3.92
2017-04-24T01:33:26.267Z,3.95
2017-04-24T01:34:27.283Z,4.02
2017-04-24T01:35:28.044Z,3.95
2017-04-24T01:36:28.818Z,3.96
2017-04-24T01:37:29.575Z,4.02
2017-04-24T01:38:30.338Z,3.91
2017-04-24T01:39:31.354Z,3.92
2017-04-24T01:40:32.119Z,3.94
2017-04-24T01:41:32.891Z,3.91
2017-04-24T01:42:33.655Z,3.94
2017-04-24T01:43:34.417Z,3.86
2017-04-24T01:44:35.435Z,3.91
2017-04-24T01:45:36.198Z,3.87
2017-04-24T01:46:37.149Z,3.86
2017-04-24T01:47:37.912Z,3.77
2017-04-24T01:48:38.680Z,3.83
2017-04-24T01:49:39.690Z,3.69
2017-04-24T01:50:40.456Z,3.84
2017-04-24T01:51:41.219Z,3.81
2017-04-24T01:52:41.983Z,3.84
2017-04-24T01:53:42.747Z,3.83
2017-04-24T01:54:43.761Z,3.78
2017-04-24T01:55:44.526Z,3.77
2017-04-24T01:56:45.291Z,3.73
2017-04-24T01:57:46.056Z,3.68
2017-04-24T01:58:46.821Z,3.73
2017-04-24T01:59:47.837Z,3.73
2017-04-24T02:00:48.602Z,3.77
2017-04-24T02:01:49.366Z,3.80
2017-04-24T02:02:50.129Z,3.70
2017-04-24T02:03:50.893Z,3.68
2017-04-24T02:04:51.908Z,3.70
2017-04-24T02:05:52.672Z,3.68
2017-04-24T02:06:53.436Z,3.77
2017-04-24T02:07:54.199Z,3.66
2017-04-24T02:08:54.965Z,3.70
2017-04-24T02:09:55.979Z,3.60
2017-04-24T02:10:56.742Z,3.55
2017-04-24T02:11:57.505Z,3.63
2017-04-24T02:12:58.269Z,3.63
2017-04-24T02:13:59.030Z,3.59
2017-04-24T02:15:00.282Z,3.62
2017-04-24T02:16:01.047Z,3.58
2017-04-24T02:17:01.810Z,3.63
2017-04-24T02:18:02.574Z,3.55
2017-04-24T02:19:03.337Z,3.59
2017-04-24T02:20:04.351Z,3.50
2017-04-24T02:21:05.125Z,3.60
2017-04-24T02:22:05.880Z,3.55
2017-04-24T02:23:06.643Z,3.51
2017-04-24T02:24:07.410Z,3.50
2017-04-24T02:25:08.426Z,3.58
2017-04-24T02:26:09.189Z,3.50
2017-04-24T02:27:09.953Z,3.42
2017-04-24T02:28:10.719Z,3.58
2017-04-24T02:29:11.481Z,3.56
2017-04-24T02:30:12.497Z,3.59
2017-04-24T02:31:13.267Z,3.58
2017-04-24T02:32:14.029Z,3.58
2017-04-24T02:33:14.794Z,3.60
2017-04-24T02:34:15.555Z,3.56
2017-04-24T02:35:16.570Z,3.62
2017-04-24T02:36:17.335Z,3.68
2017-04-24T02:37:18.100Z,3.60
2017-04-24T02:38:18.866Z,3.58
2017-04-24T02:39:19.629Z,3.60
2017-04-24T02:40:20.642Z,3.51
2017-04-24T02:41:21.406Z,3.65
2017-04-24T02:42:22.168Z,3.58
2017-04-24T02:43:22.931Z,3.58
2017-04-24T02:44:23.699Z,3.53
2017-04-24T02:45:24.709Z,3.55
2017-04-24T02:46:25.473Z,3.56
2017-04-24T02:47:26.235Z,3.60
2017-04-24T02:48:27.004Z,3.53
2017-04-24T02:49:27.766Z,3.63
2017-04-24T02:50:28.779Z,3.59
2017-04-24T02:51:29.543Z,3.60
2017-04-24T02:52:30.307Z,3.66
2017-04-24T02:53:31.068Z,3.68
2017-04-24T02:54:31.835Z,3.63
2017-04-24T02:55:32.850Z,3.77
2017-04-24T02:56:33.615Z,3.74
2017-04-24T02:57:34.377Z,3.66
2017-04-24T02:58:35.144Z,3.74
2017-04-24T02:59:35.907Z,3.77
2017-04-24T03:00:36.921Z,3.73
2017-04-24T03:01:37.687Z,3.77
2017-04-24T03:02:38.450Z,3.73
2017-04-24T03:03:39.222Z,3.76
2017-04-24T03:04:39.983Z,3.81
2017-04-24T03:05:40.998Z,3.80
2017-04-24T03:06:41.767Z,3.86
2017-04-24T03:07:42.526Z,3.74
2017-04-24T03:08:43.293Z,3.87
2017-04-24T03:09:44.058Z,3.84
2017-04-24T03:10:45.077Z,3.78
2017-04-24T03:11:45.836Z,3.77
2017-04-24T03:12:46.603Z,3.83
2017-04-24T03:13:47.369Z,3.84
2017-04-24T03:14:48.131Z,3.83
2017-04-24T03:15:49.145Z,3.86
2017-04-24T03:16:49.910Z,3.80
2017-04-24T03:17:50.676Z,3.73
2017-04-24T03:18:51.447Z,3.83
2017-04-24T03:19:52.212Z,3.83
2017-04-24T03:20:53.413Z,3.86
2017-04-24T03:21:54.179Z,3.81
2017-04-24T03:22:54.942Z,3.81
2017-04-24T03:23:55.708Z,3.84
2017-04-24T03:24:56.476Z,3.81
2017-04-24T03:25:57.493Z,3.73
2017-04-24T03:26:58.256Z,3.73
2017-04-24T03:27:59.023Z,3.66
2017-04-24T03:28:59.786Z,3.73
2017-04-24T03:30:00.569Z,3.70
2017-04-24T03:31:01.573Z,3.70
2017-04-24T03:32:02.336Z,3.73
2017-04-24T03:33:03.104Z,3.74
2017-04-24T03:34:03.870Z,3.69
2017-04-24T03:35:04.824Z,3.70
2017-04-24T03:36:05.837Z,3.73
2017-04-24T03:37:06.601Z,3.73
2017-04-24T03:38:07.369Z,3.74
2017-04-24T03:39:08.137Z,3.74
2017-04-24T03:40:08.902Z,3.66
2017-04-24T03:41:09.918Z,3.60
2017-04-24T03:42:10.681Z,3.65
2017-04-24T03:43:11.447Z,3.63
2017-04-24T03:44:12.212Z,3.68
2017-04-24T03:45:12.978Z,3.60
2017-04-24T03:46:13.989Z,3.63
2017-04-24T03:47:14.800Z,3.59
2017-04-24T03:48:16.480Z,3.60
2017-04-24T03:49:17.246Z,3.65
2017-04-24T03:50:18.010Z,3.65
2017-04-24T03:51:19.026Z,3.73
2017-04-24T03:52:19.794Z,3.62
2017-04-24T03:53:20.555Z,3.62
2017-04-24T03:54:21.324Z,3.73
2017-04-24T03:55:22.088Z,3.66
2017-04-24T03:56:23.105Z,3.60
2017-04-24T03:57:23.871Z,3.60
2017-04-24T03:58:24.636Z,3.58
2017-04-24T03:59:25.401Z,3.58
2017-04-24T04:00:26.168Z,3.56
2017-04-24T04:01:27.182Z,3.53
2017-04-24T04:02:27.949Z,3.48
2017-04-24T04:03:28.715Z,3.55
2017-04-24T04:04:29.483Z,3.48
2017-04-24T04:05:30.254Z,3.56
2017-04-24T04:06:31.271Z,3.63
2017-04-24T04:07:32.038Z,3.58
2017-04-24T04:08:32.803Z,3.56
2017-04-24T04:09:33.569Z,3.56
2017-04-24T04:10:34.338Z,3.62
2017-04-24T04:11:35.355Z,3.66
2017-04-24T04:12:36.124Z,3.60
2017-04-24T04:13:36.893Z,3.65
2017-04-24T04:14:37.663Z,3.56
2017-04-24T04:15:38.431Z,3.59
2017-04-24T04:16:39.447Z,3.62
2017-04-24T04:17:40.212Z,3.66
2017-04-24T04:18:40.982Z,3.59
2017-04-24T04:19:41.755Z,3.58
2017-04-24T04:20:42.519Z,3.66
2017-04-24T04:21:43.536Z,3.63
2017-04-24T04:22:44.306Z,3.56
2017-04-24T04:23:45.077Z,3.62
2017-04-24T04:24:45.842Z,3.73
2017-04-24T04:25:46.609Z,3.65
2017-04-24T04:26:47.630Z,3.70
2017-04-24T04:27:48.400Z,3.63
2017-04-24T04:28:49.171Z,3.68
2017-04-24T04:29:49.938Z,3.73
2017-04-24T04:30:50.706Z,3.68
2017-04-24T04:31:51.725Z,3.73
2017-04-24T04:32:52.494Z,3.65
2017-04-24T04:33:53.261Z,3.69
2017-04-24T04:34:54.031Z,3.69
2017-04-24T04:35:54.798Z,3.74
2017-04-24T04:36:55.815Z,3.59
2017-04-24T04:37:56.586Z,3.76
2017-04-24T04:38:57.353Z,3.80
2017-04-24T04:39:58.119Z,3.73
2017-04-24T04:40:58.889Z,3.78
2017-04-24T04:41:59.906Z,3.77
2017-04-24T04:43:00.674Z,3.73
2017-04-24T04:44:01.442Z,3.80
2017-04-24T04:45:02.211Z,3.83
2017-04-24T04:46:02.982Z,3.76
2017-04-24T04:47:04.002Z,3.76
2017-04-24T04:48:04.769Z,3.84
2017-04-24T04:49:05.538Z,3.92
2017-04-24T04:50:06.309Z,3.78
2017-04-24T04:51:07.078Z,3.87
2017-04-24T04:52:08.099Z,3.91
2017-04-24T04:53:08.868Z,3.92
2017-04-24T04:54:09.639Z,3.94
2017-04-24T04:55:10.419Z,3.96
2017-04-24T04:56:11.190Z,3.95
2017-04-24T04:57:12.210Z,4.04
2017-04-24T04:58:12.981Z,4.06
2017-04-24T04:59:13.747Z,4.04
2017-04-24T05:00:14.516Z,4.06
2017-04-24T05:01:15.282Z,4.08
2017-04-24T05:02:16.303Z,4.10
2017-04-24T05:03:17.074Z,4.05
2017-04-24T05:04:17.844Z,4.16
2017-04-24T05:05:18.613Z,4.08
2017-04-24T05:06:19.383Z,4.13
2017-04-24T05:07:20.451Z,4.12
2017-04-24T05:08:21.220Z,4.16
2017-04-24T05:09:21.989Z,4.23
2017-04-24T05:10:22.758Z,4.26
2017-04-24T05:11:23.530Z,4.34
2017-04-24T05:12:24.553Z,4.34
2017-04-24T05:13:25.323Z,4.32
2017-04-24T05:14:26.093Z,4.37
2017-04-24T05:15:26.866Z,4.44
2017-04-24T05:16:27.634Z,4.45
2017-04-24T05:17:28.657Z,4.55
2017-04-24T05:18:29.428Z,4.52
2017-04-24T05:19:30.200Z,4.44
2017-04-24T05:20:30.971Z,4.44
2017-04-24T05:21:31.741Z,4.52
2017-04-24T05:22:32.763Z,4.53
2017-04-24T05:23:33.535Z,4.55
2017-04-24T05:24:34.307Z,4.53
2017-04-24T05:25:35.077Z,4.59
2017-04-24T05:26:35.843Z,4.55
2017-04-24T05:27:36.864Z,4.58
2017-04-24T05:28:37.636Z,4.60
2017-04-24T05:29:38.405Z,4.70
2017-04-24T05:30:39.179Z,4.66
2017-04-24T05:31:39.952Z,4.71
2017-04-24T05:32:40.975Z,4.78
2017-04-24T05:33:41.744Z,4.71
2017-04-24T05:34:42.702Z,4.68
2017-04-24T05:35:43.474Z,4.70
2017-04-24T05:36:44.244Z,4.77
2017-04-24T05:37:45.266Z,4.78
2017-04-24T05:38:46.039Z,4.86
2017-04-24T05:39:46.813Z,4.86
2017-04-24T05:40:47.579Z,4.82
2017-04-24T05:41:48.351Z,4.78
2017-04-24T05:42:49.376Z,4.77
2017-04-24T05:43:50.144Z,4.92
2017-04-24T05:44:50.918Z,4.99
2017-04-24T05:45:51.691Z,4.97
2017-04-24T05:46:52.461Z,4.96
2017-04-24T05:47:53.482Z,4.96
2017-04-24T05:48:54.255Z,5.02
2017-04-24T05:49:55.031Z,5.14
2017-04-24T05:50:55.811Z,4.99
2017-04-24T05:51:56.582Z,5.08
2017-04-24T05:52:57.604Z,5.05
2017-04-24T05:53:58.374Z,5.15
2017-04-24T05:54:59.147Z,5.15
2017-04-24T05:55:59.918Z,5.14
2017-04-24T05:57:00.693Z,5.14
2017-04-24T05:58:01.720Z,5.21
2017-04-24T05:59:02.492Z,5.20
2017-04-24T06:00:03.265Z,5.33
2017-04-24T06:01:04.041Z,5.36
2017-04-24T06:02:04.814Z,5.43
2017-04-24T06:03:05.836Z,5.44
2017-04-24T06:04:06.612Z,5.64
2017-04-24T06:05:07.384Z,5.65
2017-04-24T06:06:08.159Z,5.68
2017-04-24T06:07:08.935Z,5.64
2017-04-24T06:08:09.957Z,5.79
2017-04-24T06:09:10.731Z,5.79
2017-04-24T06:10:11.503Z,5.87
2017-04-24T06:11:12.278Z,5.86
2017-04-24T06:12:13.051Z,5.99
2017-04-24T06:13:14.072Z,6.02
2017-04-24T06:14:14.845Z,6.02
2017-04-24T06:15:15.619Z,5.98
2017-04-24T06:16:16.393Z,6.07
2017-04-24T06:17:17.166Z,6.17
2017-04-24T06:18:18.192Z,6.17
2017-04-24T06:19:18.967Z,6.22
2017-04-24T06:20:19.743Z,6.19
2017-04-24T06:21:20.516Z,6.14
2017-04-24T06:22:21.475Z,6.20
2017-04-24T06:23:22.502Z,6.17
2017-04-24T06:24:23.274Z,6.35
2017-04-24T06:25:24.045Z,6.38
2017-04-24T06:26:24.821Z,6.28
2017-04-24T06:27:25.593Z,6.36
2017-04-24T06:28:26.616Z,6.39
2017-04-24T06:29:27.415Z,6.39
2017-04-24T06:30:28.165Z,6.41
2017-04-24T06:31:28.938Z,6.46
2017-04-24T06:32:29.710Z,6.39
2017-04-24T06:33:30.782Z,6.54
2017-04-24T06:34:31.556Z,6.57
2017-04-24T06:35:32.330Z,6.54
2017-04-24T06:36:33.105Z,6.54
2017-04-24T06:37:33.880Z,6.72
2017-04-24T06:38:34.905Z,6.74
2017-04-24T06:39:35.680Z,6.67
2017-04-24T06:40:36.453Z,6.69
2017-04-24T06:41:37.228Z,6.77
2017-04-24T06:42:38.018Z,6.78
2017-04-24T06:43:39.041Z,6.88
2017-04-24T06:44:39.815Z,6.97
2017-04-24T06:45:40.593Z,7.03
2017-04-24T06:46:41.363Z,6.93
2017-04-24T06:47:42.138Z,7.05
2017-04-24T06:48:43.161Z,7.05
2017-04-24T06:49:43.934Z,7.06
2017-04-24T06:50:44.708Z,7.11
2017-04-24T06:51:45.483Z,7.07
2017-04-24T06:52:46.259Z,7.07
2017-04-24T06:53:47.284Z,7.14
2017-04-24T06:54:48.061Z,7.20
2017-04-24T06:55:48.835Z,7.21
2017-04-24T06:56:49.612Z,7.17
2017-04-24T06:57:50.391Z,7.29
2017-04-24T06:58:51.411Z,7.28
2017-04-24T06:59:52.187Z,7.31
2017-04-24T07:00:52.962Z,7.42
2017-04-24T07:01:53.737Z,7.42
2017-04-24T07:02:54.509Z,7.56
2017-04-24T07:03:55.535Z,7.61
2017-04-24T07:04:56.311Z,7.69
2017-04-24T07:05:57.084Z,7.66
2017-04-24T07:06:57.858Z,7.51
2017-04-24T07:07:58.634Z,7.48
2017-04-24T07:08:59.660Z,7.50
2017-04-24T07:10:00.434Z,7.56
2017-04-24T07:11:01.210Z,7.69
2017-04-24T07:12:01.985Z,7.63
2017-04-24T07:13:02.760Z,7.70
2017-04-24T07:14:03.788Z,7.72
2017-04-24T07:15:04.563Z,7.80
2017-04-24T07:16:05.338Z,7.72
2017-04-24T07:17:06.113Z,7.80
2017-04-24T07:18:06.889Z,7.80
2017-04-24T07:19:07.913Z,7.94
2017-04-24T07:20:08.689Z,8.01
2017-04-24T07:21:09.462Z,8.05
2017-04-24T07:22:10.239Z,8.01
2017-04-24T07:23:11.014Z,8.06
2017-04-24T07:24:12.042Z,8.13
2017-04-24T07:25:12.817Z,8.09
2017-04-24T07:26:13.591Z,8.10
2017-04-24T07:27:14.364Z,8.13
2017-04-24T07:28:15.138Z,8.15
2017-04-24T07:29:16.163Z,8.13
2017-04-24T07:30:16.940Z,8.09
2017-04-24T07:31:17.716Z,8.10
2017-04-24T07:32:18.489Z,8.18
2017-04-24T07:33:19.264Z,8.26
2017-04-24T07:34:20.288Z,8.27
2017-04-24T07:35:21.064Z,8.36
2017-04-24T07:36:21.843Z,8.45
2017-04-24T07:37:22.617Z,8.51
2017-04-24T07:38:23.393Z,8.60
2017-04-24T07:39:24.420Z,8.70
2017-04-24T07:40:25.197Z,8.74
2017-04-24T07:41:25.973Z,8.64
2017-04-24T07:42:26.749Z,8.73
2017-04-24T07:43:27.708Z,8.69
2017-04-24T07:44:28.735Z,8.63
2017-04-24T07:45:29.512Z,8.67
2017-04-24T07:46:30.286Z,8.69
2017-04-24T07:47:31.060Z,8.76
2017-04-24T07:48:31.834Z,8.70
2017-04-24T07:49:32.862Z,8.74
2017-04-24T07:50:33.640Z,8.85
2017-04-24T07:51:34.418Z,8.99
2017-04-24T07:52:35.198Z,9.14
2017-04-24T07:53:35.976Z,9.22
2017-04-24T07:54:37.004Z,9.26
2017-04-24T07:55:37.784Z,9.34
2017-04-24T07:56:38.562Z,9.37
2017-04-24T07:57:39.347Z,9.43
2017-04-24T07:58:40.123Z,9.47
2017-04-24T07:59:41.150Z,9.32
2017-04-24T08:00:41.928Z,9.37
2017-04-24T08:01:42.707Z,9.43
2017-04-24T08:02:43.485Z,9.54
2017-04-24T08:03:44.263Z,9.59
2017-04-24T08:04:45.291Z,9.54
2017-04-24T08:05:46.069Z,9.54
2017-04-24T08:06:46.846Z,9.40
2017-04-24T08:07:47.622Z,9.37
2017-04-24T08:08:48.398Z,9.40
2017-04-24T08:09:49.427Z,9.46
2017-04-24T08:10:50.204Z,9.58
2017-04-24T08:11:50.983Z,9.65
2017-04-24T08:12:51.760Z,9.65
2017-04-24T08:13:52.539Z,9.64
2017-04-24T08:14:53.567Z,9.68
2017-04-24T08:15:54.345Z,9.84
2017-04-24T08:16:55.122Z,9.76
2017-04-24T08:17:55.901Z,9.87
2017-04-24T08:18:56.683Z,9.89
2017-04-24T08:19:57.711Z,10.01
2017-04-24T08:20:58.491Z,9.99
2017-04-24T08:21:59.273Z,10.37
2017-04-24T08:23:00.242Z,10.44
2017-04-24T08:24:01.023Z,10.23
2017-04-24T08:25:02.054Z,10.44
2017-04-24T08:26:02.836Z,10.68
2017-04-24T08:27:03.619Z,10.89
2017-04-24T08:28:04.406Z,10.75
2017-04-24T08:29:05.182Z,10.69
2017-04-24T08:30:06.218Z,10.69
2017-04-24T08:31:06.999Z,10.89
2017-04-24T08:32:07.781Z,10.89
2017-04-24T08:33:08.565Z,10.67
2017-04-24T08:34:09.347Z,10.78
2017-04-24T08:35:10.379Z,10.92
2017-04-24T08:36:11.165Z,11.12
2017-04-24T08:37:11.945Z,11.25
2017-04-24T08:38:12.731Z,11.50
2017-04-24T08:39:13.516Z,11.77
2017-04-24T08:40:14.548Z,11.72
2017-04-24T08:41:15.332Z,11.55
2017-04-24T08:42:16.116Z,12.00
2017-04-24T08:43:16.901Z,12.15
2017-04-24T08:44:17.685Z,11.99
2017-04-24T08:45:18.723Z,11.40
2017-04-24T08:46:19.507Z,11.33
2017-04-24T08:47:20.292Z,11.55
2017-04-24T08:48:21.077Z,11.51
2017-04-24T08:49:21.861Z,11.80
2017-04-24T08:50:22.896Z,11.84
2017-04-24T08:51:23.683Z,11.91
2017-04-24T08:52:24.472Z,12.25
2017-04-24T08:53:25.258Z,12.50
2017-04-24T08:54:26.049Z,12.65
2017-04-24T08:55:27.082Z,12.98
2017-04-24T08:56:27.872Z,12.73
2017-04-24T08:57:28.654Z,12.64
2017-04-24T08:58:29.440Z,12.62
2017-04-24T08:59:30.227Z,12.62
2017-04-24T09:00:31.312Z,12.73
2017-04-24T09:01:32.102Z,12.78
2017-04-24T09:02:32.890Z,13.03
2017-04-24T09:03:33.683Z,12.95
2017-04-24T09:04:34.476Z,13.01
2017-04-24T09:05:35.520Z,13.37
2017-04-24T09:06:36.313Z,13.31
2017-04-24T09:07:37.107Z,13.72
2017-04-24T09:08:37.903Z,13.27
2017-04-24T09:09:38.694Z,13.27
2017-04-24T09:10:39.733Z,13.57
2017-04-24T09:11:40.522Z,13.35
2017-04-24T09:12:41.312Z,13.25
2017-04-24T09:13:42.104Z,12.68
2017-04-24T09:14:42.893Z,12.68
2017-04-24T09:15:43.933Z,12.86
2017-04-24T09:16:44.720Z,12.78
2017-04-24T09:17:45.510Z,12.82
2017-04-24T09:18:46.300Z,13.23
2017-04-24T09:19:47.087Z,13.41
2017-04-24T09:20:48.129Z,13.59
2017-04-24T09:21:48.921Z,13.54
2017-04-24T09:22:49.713Z,13.46
2017-04-24T09:23:50.503Z,13.25
2017-04-24T09:24:51.293Z,13.11
2017-04-24T09:25:52.335Z,13.46
2017-04-24T09:26:53.128Z,14.11
2017-04-24T09:27:53.916Z,14.22
2017-04-24T09:28:54.706Z,14.28
2017-04-24T09:29:55.495Z,14.84
2017-04-24T09:30:56.536Z,14.85
2017-04-24T09:31:57.325Z,14.11
2017-04-24T09:32:58.117Z,13.54
2017-04-24T09:33:58.906Z,13.56
2017-04-24T09:34:59.697Z,13.38
2017-04-24T09:36:00.738Z,13.33
2017-04-24T09:37:01.530Z,12.90
2017-04-24T09:38:02.322Z,13.47
2017-04-24T09:39:03.117Z,13.72
2017-04-24T09:40:03.906Z,14.15
2017-04-24T09:41:04.947Z,13.92
2017-04-24T09:42:05.741Z,14.07
2017-04-24T09:43:06.534Z,14.12
2017-04-24T09:44:07.325Z,14.18
2017-04-24T09:45:08.303Z,14.23
2017-04-24T09:46:09.346Z,13.79
2017-04-24T09:47:10.136Z,13.89
2017-04-24T09:48:10.929Z,13.85
2017-04-24T09:49:11.719Z,13.65
2017-04-24T09:50:12.510Z,13.90
2017-04-24T09:51:13.554Z,13.44
2017-04-24T09:52:14.348Z,13.46
2017-04-24T09:53:15.141Z,13.78
2017-04-24T09:54:15.937Z,13.86
2017-04-24T09:55:16.726Z,14.10
2017-04-24T09:56:17.770Z,14.51
2017-04-24T09:57:18.563Z,13.99
2017-04-24T09:58:19.357Z,14.23
2017-04-24T09:59:20.154Z,14.47
2017-04-24T10:00:20.944Z,14.08
2017-04-24T10:01:21.984Z,14.48
2017-04-24T10:02:22.776Z,15.07
2017-04-24T10:03:23.578Z,15.31
2017-04-24T10:04:24.370Z,15.76
2017-04-24T10:05:25.165Z,16.02
2017-04-24T10:06:26.257Z,15.70
2017-04-24T10:07:27.050Z,15.88
2017-04-24T10:08:27.845Z,16.26
2017-04-24T10:09:28.636Z,16.51
2017-04-24T10:10:29.432Z,15.52
2017-04-24T10:11:30.662Z,15.46
2017-04-24T10:12:31.456Z,15.75
2017-04-24T10:13:32.251Z,16.15
2017-04-24T10:14:33.049Z,15.77
2017-04-24T10:15:33.839Z,15.59
2017-04-24T10:16:34.883Z,15.77
2017-04-24T10:17:35.677Z,16.23
2017-04-24T10:18:36.468Z,16.02
2017-04-24T10:19:37.264Z,16.04
2017-04-24T10:20:38.057Z,15.76
2017-04-24T10:21:39.101Z,15.51
2017-04-24T10:22:39.893Z,15.42
2017-04-24T10:23:40.686Z,15.49
2017-04-24T10:24:41.477Z,15.55
2017-04-24T10:25:42.271Z,15.76
2017-04-24T10:26:43.313Z,15.18
2017-04-24T10:27:44.107Z,15.35
2017-04-24T10:28:44.899Z,15.51
2017-04-24T10:29:45.689Z,15.42
2017-04-24T10:30:46.480Z,15.52
2017-04-24T10:31:47.523Z,15.91
2017-04-24T10:32:48.312Z,16.00
2017-04-24T10:33:49.104Z,15.47
2017-04-24T10:34:49.898Z,14.84
2017-04-24T10:35:50.690Z,14.73
2017-04-24T10:36:51.731Z,14.81
2017-04-24T10:37:52.526Z,14.99
2017-04-24T10:38:53.317Z,15.39
2017-04-24T10:39:54.109Z,15.07
2017-04-24T10:40:54.901Z,15.28
2017-04-24T10:41:55.943Z,15.47
2017-04-24T10:42:56.732Z,14.96
2017-04-24T10:43:57.523Z,15.22
2017-04-24T10:44:58.316Z,15.24
2017-04-24T10:45:59.104Z,15.47
2017-04-24T10:47:00.195Z,15.42
2017-04-24T10:48:00.981Z,15.37
2017-04-24T10:49:01.769Z,14.99
2017-04-24T10:50:02.553Z,14.69
2017-04-24T10:51:03.344Z,14.62
2017-04-24T10:52:04.386Z,14.36
2017-04-24T10:53:05.175Z,14.59
2017-04-24T10:54:05.965Z,14.79
2017-04-24T10:55:06.752Z,14.70
2017-04-24T10:56:07.539Z,14.81
2017-04-24T10:57:08.578Z,14.55
2017-04-24T10:58:09.368Z,14.62
2017-04-24T10:59:10.160Z,14.36
2017-04-24T11:00:10.948Z,14.10
2017-04-24T11:01:11.740Z,14.32
2017-04-24T11:02:12.780Z,14.63
2017-04-24T11:03:13.571Z,14.37
2017-04-24T11:04:14.363Z,14.43
2017-04-24T11:05:15.155Z,14.44
2017-04-24T11:06:15.947Z,14.55
2017-04-24T11:07:16.988Z,15.14
2017-04-24T11:08:17.776Z,15.35
2017-04-24T11:09:18.566Z,15.70
2017-04-24T11:10:19.352Z,15.43
2017-04-24T11:11:20.140Z,15.36
2017-04-24T11:12:21.179Z,15.17
2017-04-24T11:13:21.973Z,15.28
2017-04-24T11:14:22.762Z,15.58
2017-04-24T11:15:23.555Z,15.86
2017-04-24T11:16:24.342Z,16.87
2017-04-24T11:17:25.384Z,16.94
2017-04-24T11:18:26.179Z,16.33
2017-04-24T11:19:26.969Z,15.52
2017-04-24T11:20:27.757Z,15.49
2017-04-24T11:21:28.544Z,15.54
2017-04-24T11:22:29.585Z,15.68
2017-04-24T11:23:30.374Z,15.28
2017-04-24T11:24:31.162Z,15.14
2017-04-24T11:25:31.952Z,15.59
2017-04-24T11:26:32.740Z,15.91
2017-04-24T11:27:33.780Z,15.77
2017-04-24T11:28:34.569Z,15.65
2017-04-24T11:29:35.357Z,15.33
2017-04-24T11:30:36.147Z,15.28
2017-04-24T11:31:36.938Z,15.49
2017-04-24T11:32:38.028Z,15.75
2017-04-24T11:33:38.821Z,15.80
2017-04-24T11:34:39.612Z,16.36
2017-04-24T11:35:40.402Z,16.53
2017-04-24T11:36:41.188Z,16.72
2017-04-24T11:37:42.229Z,16.96
2017-04-24T11:38:43.016Z,16.56
2017-04-24T11:39:43.807Z,16.01
2017-04-24T11:40:44.599Z,16.26
2017-04-24T11:41:45.390Z,16.96
2017-04-24T11:42:46.436Z,16.54
2017-04-24T11:43:47.229Z,16.04
2017-04-24T11:44:48.018Z,16.13
2017-04-24T11:45:48.813Z,16.57
2017-04-24T11:46:49.604Z,16.53
2017-04-24T11:47:50.698Z,16.33
2017-04-24T11:48:51.677Z,15.83
2017-04-24T11:49:52.468Z,15.40
2017-04-24T11:50:53.257Z,15.15
2017-04-24T11:51:54.046Z,15.14
2017-04-24T11:52:55.089Z,14.84
2017-04-24T11:53:55.878Z,14.92
2017-04-24T11:54:56.671Z,15.06
2017-04-24T11:55:57.467Z,15.21
2017-04-24T11:56:58.344Z,15.18
2017-04-24T11:57:59.436Z,14.84
2017-04-24T11:59:00.253Z,15.06
2017-04-24T12:00:01.038Z,15.14
2017-04-24T12:01:01.829Z,14.81
2017-04-24T12:02:02.618Z,14.96
2017-04-24T12:03:03.663Z,15.55
2017-04-24T12:04:04.451Z,15.95
2017-04-24T12:05:05.238Z,16.04
2017-04-24T12:06:06.028Z,16.42
2017-04-24T12:07:06.825Z,16.50
2017-04-24T12:08:07.931Z,16.65
2017-04-24T12:09:08.735Z,16.74
2017-04-24T12:10:09.491Z,16.74
2017-04-24T12:11:10.368Z,17.12
2017-04-24T12:12:11.174Z,17.12
2017-04-24T12:13:12.228Z,17.33
2017-04-24T12:14:13.254Z,16.96
2017-04-24T12:15:14.053Z,16.46
2017-04-24T12:16:14.880Z,15.86
2017-04-24T12:17:15.886Z,16.28
2017-04-24T12:18:16.978Z,16.38
2017-04-24T12:19:17.767Z,16.20
2017-04-24T12:20:18.570Z,16.29
2017-04-24T12:21:19.349Z,16.64
2017-04-24T12:22:20.137Z,16.54
2017-04-24T12:23:21.224Z,16.75
2017-04-24T12:24:22.054Z,16.39
2017-04-24T12:25:22.843Z,16.54
2017-04-24T12:26:23.823Z,16.35
2017-04-24T12:27:24.608Z,16.04
2017-04-24T12:28:25.649Z,16.01
2017-04-24T12:29:26.436Z,15.75
2017-04-24T12:30:27.226Z,15.10
2017-04-24T12:31:28.018Z,14.96
2017-04-24T12:32:28.808Z,14.92
2017-04-24T12:33:29.846Z,15.10
2017-04-24T12:34:30.634Z,15.49
2017-04-24T12:35:31.425Z,15.64
2017-04-24T12:36:32.213Z,15.37
2017-04-24T12:37:33.007Z,15.46
2017-04-24T12:38:34.045Z,15.39
2017-04-24T12:39:34.830Z,15.22
2017-04-24T12:40:35.622Z,15.24
2017-04-24T12:41:36.412Z,15.39
2017-04-24T12:42:37.205Z,15.57
2017-04-24T12:43:38.288Z,16.02
2017-04-24T12:44:39.079Z,16.21
2017-04-24T12:45:39.869Z,15.88
2017-04-24T12:46:40.658Z,16.10
2017-04-24T12:47:41.451Z,16.36
2017-04-24T12:48:42.489Z,16.38
2017-04-24T12:49:43.465Z,16.08
2017-04-24T12:50:44.260Z,16.65
2017-04-24T12:51:45.050Z,17.01
2017-04-24T12:52:45.842Z,17.27
2017-04-24T12:53:46.885Z,17.41
2017-04-24T12:54:47.674Z,18.16
2017-04-24T12:55:48.459Z,18.34
2017-04-24T12:56:49.248Z,18.07
2017-04-24T12:57:50.037Z,18.01
2017-04-24T12:58:51.075Z,18.31
2017-04-24T12:59:51.867Z,17.87
2017-04-24T13:00:52.655Z,17.65
2017-04-24T13:01:53.447Z,17.16
2017-04-24T13:02:54.239Z,16.87
2017-04-24T13:03:55.331Z,16.36
2017-04-24T13:04:56.119Z,16.68
2017-04-24T13:05:56.906Z,17.01
2017-04-24T13:06:57.695Z,16.89
2017-04-24T13:07:58.487Z,17.02
2017-04-24T13:08:59.527Z,17.38
2017-04-24T13:10:00.319Z,17.20
2017-04-24T13:11:01.111Z,17.63
2017-04-24T13:12:01.902Z,17.36
2017-04-24T13:13:02.693Z,16.78
2017-04-24T13:14:03.785Z,16.33
2017-04-24T13:15:04.569Z,16.10
2017-04-24T13:16:05.363Z,16.02
2017-04-24T13:17:06.148Z,15.57
2017-04-24T13:18:06.936Z,15.79
2017-04-24T13:19:07.979Z,15.72